sensor_id;sensor_type;location;lat;lon;timestamp;P1;durP1;ratioP1;P2;durP2;ratioP2
21432;SDS011;18592;49.708;10.900;2023-02-15T00:00:04;9.63;;;6.70;;
21432;SDS011;18592;49.708;10.900;2023-02-15T00:02:07;9.93;;;7.00;;
21432;SDS011;18592;49.708;10.900;2023-02-15T00:04:09;9.90;;;7.03;;
21432;SDS011;18592;49.708;10.900;2023-02-15T00:06:11;10.90;;;7.13;;
21432;SDS011;18592;49.708;10.900;2023-02-15T00:08:13;11.23;;;7.10;;
21432;SDS011;18592;49.708;10.900;2023-02-15T00:10:16;9.60;;;6.80;;
21432;SDS011;18592;49.708;10.900;2023-02-15T00:12:18;11.10;;;7.67;;
21432;SDS011;18592;49.708;10.900;2023-02-15T00:14:22;10.23;;;7.03;;
21432;SDS011;18592;49.708;10.900;2023-02-15T00:16:24;10.30;;;7.23;;
21432;SDS011;18592;49.708;10.900;2023-02-15T00:18:26;10.20;;;7.07;;
21432;SDS011;18592;49.708;10.900;2023-02-15T00:20:28;10.03;;;6.53;;
21432;SDS011;18592;49.708;10.900;2023-02-15T00:22:29;9.80;;;6.80;;
21432;SDS011;18592;49.708;10.900;2023-02-15T00:24:31;10.40;;;7.17;;
21432;SDS011;18592;49.708;10.900;2023-02-15T00:26:37;11.07;;;7.10;;
21432;SDS011;18592;49.708;10.900;2023-02-15T00:28:40;9.73;;;6.93;;
21432;SDS011;18592;49.708;10.900;2023-02-15T00:30:41;9.63;;;6.70;;
21432;SDS011;18592;49.708;10.900;2023-02-15T00:32:43;9.93;;;6.70;;
21432;SDS011;18592;49.708;10.900;2023-02-15T00:34:45;10.23;;;7.10;;
21432;SDS011;18592;49.708;10.900;2023-02-15T00:36:48;8.87;;;6.20;;
21432;SDS011;18592;49.708;10.900;2023-02-15T00:38:52;9.43;;;6.80;;
21432;SDS011;18592;49.708;10.900;2023-02-15T00:40:55;9.73;;;6.60;;
21432;SDS011;18592;49.708;10.900;2023-02-15T00:42:58;10.07;;;6.73;;
21432;SDS011;18592;49.708;10.900;2023-02-15T00:45:00;9.40;;;6.60;;
21432;SDS011;18592;49.708;10.900;2023-02-15T00:47:02;10.00;;;7.07;;
21432;SDS011;18592;49.708;10.900;2023-02-15T00:49:04;10.50;;;7.10;;
21432;SDS011;18592;49.708;10.900;2023-02-15T00:51:05;8.93;;;6.57;;
21432;SDS011;18592;49.708;10.900;2023-02-15T00:53:07;10.03;;;6.67;;
21432;SDS011;18592;49.708;10.900;2023-02-15T00:55:09;9.87;;;6.87;;
21432;SDS011;18592;49.708;10.900;2023-02-15T00:57:13;9.03;;;6.90;;
21432;SDS011;18592;49.708;10.900;2023-02-15T00:59:15;9.57;;;6.10;;
21432;SDS011;18592;49.708;10.900;2023-02-15T01:01:17;10.43;;;6.93;;
21432;SDS011;18592;49.708;10.900;2023-02-15T01:03:20;8.83;;;6.80;;
21432;SDS011;18592;49.708;10.900;2023-02-15T01:05:22;8.17;;;6.07;;
21432;SDS011;18592;49.708;10.900;2023-02-15T01:07:24;8.90;;;6.27;;
21432;SDS011;18592;49.708;10.900;2023-02-15T01:09:26;9.07;;;6.57;;
21432;SDS011;18592;49.708;10.900;2023-02-15T01:11:33;9.43;;;6.73;;
21432;SDS011;18592;49.708;10.900;2023-02-15T01:13:35;8.50;;;6.03;;
21432;SDS011;18592;49.708;10.900;2023-02-15T01:15:37;10.10;;;6.90;;
21432;SDS011;18592;49.708;10.900;2023-02-15T01:17:38;9.47;;;6.73;;
21432;SDS011;18592;49.708;10.900;2023-02-15T01:19:40;10.80;;;6.83;;
21432;SDS011;18592;49.708;10.900;2023-02-15T01:21:42;9.50;;;6.50;;
21432;SDS011;18592;49.708;10.900;2023-02-15T01:23:44;8.50;;;5.93;;
21432;SDS011;18592;49.708;10.900;2023-02-15T01:25:46;11.30;;;7.50;;
21432;SDS011;18592;49.708;10.900;2023-02-15T01:27:48;10.27;;;7.53;;
21432;SDS011;18592;49.708;10.900;2023-02-15T01:29:50;9.37;;;6.60;;
21432;SDS011;18592;49.708;10.900;2023-02-15T01:31:51;8.47;;;6.10;;
21432;SDS011;18592;49.708;10.900;2023-02-15T01:33:53;10.07;;;6.83;;
21432;SDS011;18592;49.708;10.900;2023-02-15T01:35:58;11.33;;;7.33;;
21432;SDS011;18592;49.708;10.900;2023-02-15T01:38:00;8.73;;;6.63;;
21432;SDS011;18592;49.708;10.900;2023-02-15T01:40:02;8.43;;;5.80;;
21432;SDS011;18592;49.708;10.900;2023-02-15T01:42:09;9.83;;;6.73;;
21432;SDS011;18592;49.708;10.900;2023-02-15T01:46:49;8.87;;;6.10;;
21432;SDS011;18592;49.708;10.900;2023-02-15T01:48:55;9.67;;;6.93;;
21432;SDS011;18592;49.708;10.900;2023-02-15T01:51:01;8.00;;;5.73;;
21432;SDS011;18592;49.708;10.900;2023-02-15T01:55:08;8.10;;;6.20;;
21432;SDS011;18592;49.708;10.900;2023-02-15T01:57:11;8.53;;;6.23;;
21432;SDS011;18592;49.708;10.900;2023-02-15T01:59:16;10.30;;;7.30;;
21432;SDS011;18592;49.708;10.900;2023-02-15T02:01:23;8.37;;;6.40;;
21432;SDS011;18592;49.708;10.900;2023-02-15T02:03:30;9.63;;;6.63;;
21432;SDS011;18592;49.708;10.900;2023-02-15T02:05:37;8.53;;;6.47;;
21432;SDS011;18592;49.708;10.900;2023-02-15T02:07:41;9.43;;;6.63;;
21432;SDS011;18592;49.708;10.900;2023-02-15T02:09:47;9.80;;;6.70;;
21432;SDS011;18592;49.708;10.900;2023-02-15T02:11:49;8.23;;;6.50;;
21432;SDS011;18592;49.708;10.900;2023-02-15T02:13:51;9.40;;;6.73;;
21432;SDS011;18592;49.708;10.900;2023-02-15T02:16:04;10.67;;;7.40;;
21432;SDS011;18592;49.708;10.900;2023-02-15T02:18:41;8.70;;;6.47;;
21432;SDS011;18592;49.708;10.900;2023-02-15T02:21:10;10.67;;;6.83;;
21432;SDS011;18592;49.708;10.900;2023-02-15T02:25:48;10.23;;;6.67;;
21432;SDS011;18592;49.708;10.900;2023-02-15T02:35:12;10.20;;;7.03;;
21432;SDS011;18592;49.708;10.900;2023-02-15T02:37:28;9.93;;;7.07;;
21432;SDS011;18592;49.708;10.900;2023-02-15T02:39:49;9.90;;;7.03;;
21432;SDS011;18592;49.708;10.900;2023-02-15T02:42:04;9.83;;;6.73;;
21432;SDS011;18592;49.708;10.900;2023-02-15T02:44:25;8.80;;;6.67;;
21432;SDS011;18592;49.708;10.900;2023-02-15T02:49:14;10.20;;;6.93;;
21432;SDS011;18592;49.708;10.900;2023-02-15T02:51:16;9.27;;;6.47;;
21432;SDS011;18592;49.708;10.900;2023-02-15T02:53:22;9.83;;;6.73;;
21432;SDS011;18592;49.708;10.900;2023-02-15T02:55:30;9.37;;;6.37;;
21432;SDS011;18592;49.708;10.900;2023-02-15T02:57:36;9.53;;;7.00;;
21432;SDS011;18592;49.708;10.900;2023-02-15T02:59:43;9.50;;;6.87;;
21432;SDS011;18592;49.708;10.900;2023-02-15T03:02:02;9.90;;;6.90;;
21432;SDS011;18592;49.708;10.900;2023-02-15T03:04:10;10.37;;;6.83;;
21432;SDS011;18592;49.708;10.900;2023-02-15T03:06:18;9.77;;;6.97;;
21432;SDS011;18592;49.708;10.900;2023-02-15T03:08:27;9.90;;;6.80;;
21432;SDS011;18592;49.708;10.900;2023-02-15T03:10:37;10.53;;;6.93;;
21432;SDS011;18592;49.708;10.900;2023-02-15T03:12:44;10.07;;;6.93;;
21432;SDS011;18592;49.708;10.900;2023-02-15T03:14:53;8.77;;;6.40;;
21432;SDS011;18592;49.708;10.900;2023-02-15T03:17:01;8.77;;;6.70;;
21432;SDS011;18592;49.708;10.900;2023-02-15T03:19:12;10.40;;;7.23;;
21432;SDS011;18592;49.708;10.900;2023-02-15T03:21:21;9.40;;;6.93;;
21432;SDS011;18592;49.708;10.900;2023-02-15T03:23:27;10.23;;;7.50;;
21432;SDS011;18592;49.708;10.900;2023-02-15T03:25:34;11.07;;;7.47;;
21432;SDS011;18592;49.708;10.900;2023-02-15T03:27:43;11.30;;;7.47;;
21432;SDS011;18592;49.708;10.900;2023-02-15T03:29:55;10.43;;;7.73;;
21432;SDS011;18592;49.708;10.900;2023-02-15T03:32:01;9.77;;;6.67;;
21432;SDS011;18592;49.708;10.900;2023-02-15T03:34:07;10.50;;;6.50;;
21432;SDS011;18592;49.708;10.900;2023-02-15T03:38:34;10.43;;;6.80;;
21432;SDS011;18592;49.708;10.900;2023-02-15T03:40:42;9.83;;;7.20;;
21432;SDS011;18592;49.708;10.900;2023-02-15T03:43:12;10.30;;;6.77;;
21432;SDS011;18592;49.708;10.900;2023-02-15T03:45:23;9.50;;;6.80;;
21432;SDS011;18592;49.708;10.900;2023-02-15T03:47:33;10.77;;;7.03;;
21432;SDS011;18592;49.708;10.900;2023-02-15T03:49:42;9.20;;;6.73;;
21432;SDS011;18592;49.708;10.900;2023-02-15T03:51:45;11.07;;;7.53;;
21432;SDS011;18592;49.708;10.900;2023-02-15T03:53:49;11.80;;;7.93;;
21432;SDS011;18592;49.708;10.900;2023-02-15T03:55:55;12.13;;;7.87;;
21432;SDS011;18592;49.708;10.900;2023-02-15T03:57:56;10.87;;;7.30;;
21432;SDS011;18592;49.708;10.900;2023-02-15T04:00:18;10.90;;;7.33;;
21432;SDS011;18592;49.708;10.900;2023-02-15T04:02:53;10.43;;;7.20;;
21432;SDS011;18592;49.708;10.900;2023-02-15T04:05:07;9.37;;;6.43;;
21432;SDS011;18592;49.708;10.900;2023-02-15T04:07:09;11.70;;;7.70;;
21432;SDS011;18592;49.708;10.900;2023-02-15T04:09:11;9.47;;;6.60;;
21432;SDS011;18592;49.708;10.900;2023-02-15T04:11:32;11.07;;;7.63;;
21432;SDS011;18592;49.708;10.900;2023-02-15T04:13:34;10.80;;;7.30;;
21432;SDS011;18592;49.708;10.900;2023-02-15T04:15:35;9.30;;;7.00;;
21432;SDS011;18592;49.708;10.900;2023-02-15T04:17:55;9.10;;;6.53;;
21432;SDS011;18592;49.708;10.900;2023-02-15T04:19:57;9.30;;;6.43;;
21432;SDS011;18592;49.708;10.900;2023-02-15T04:22:21;9.93;;;7.00;;
21432;SDS011;18592;49.708;10.900;2023-02-15T04:24:41;9.23;;;6.80;;
21432;SDS011;18592;49.708;10.900;2023-02-15T04:27:02;10.07;;;7.23;;
21432;SDS011;18592;49.708;10.900;2023-02-15T04:29:05;10.83;;;7.23;;
21432;SDS011;18592;49.708;10.900;2023-02-15T04:31:07;11.00;;;7.67;;
21432;SDS011;18592;49.708;10.900;2023-02-15T04:33:09;11.70;;;7.33;;
21432;SDS011;18592;49.708;10.900;2023-02-15T04:35:13;11.23;;;7.00;;
21432;SDS011;18592;49.708;10.900;2023-02-15T04:37:15;10.07;;;7.03;;
21432;SDS011;18592;49.708;10.900;2023-02-15T04:39:17;9.43;;;6.73;;
21432;SDS011;18592;49.708;10.900;2023-02-15T04:41:19;10.17;;;7.00;;
21432;SDS011;18592;49.708;10.900;2023-02-15T04:43:21;11.30;;;7.00;;
21432;SDS011;18592;49.708;10.900;2023-02-15T04:45:23;11.17;;;7.23;;
21432;SDS011;18592;49.708;10.900;2023-02-15T04:47:24;10.77;;;7.57;;
21432;SDS011;18592;49.708;10.900;2023-02-15T04:49:26;9.23;;;6.97;;
21432;SDS011;18592;49.708;10.900;2023-02-15T04:51:30;10.87;;;7.77;;
21432;SDS011;18592;49.708;10.900;2023-02-15T04:53:33;11.87;;;7.57;;
21432;SDS011;18592;49.708;10.900;2023-02-15T04:55:34;11.33;;;7.83;;
21432;SDS011;18592;49.708;10.900;2023-02-15T04:57:36;11.10;;;7.17;;
21432;SDS011;18592;49.708;10.900;2023-02-15T04:59:40;10.37;;;7.47;;
21432;SDS011;18592;49.708;10.900;2023-02-15T05:01:41;11.23;;;8.13;;
21432;SDS011;18592;49.708;10.900;2023-02-15T05:03:43;10.63;;;7.60;;
21432;SDS011;18592;49.708;10.900;2023-02-15T05:05:45;10.97;;;7.57;;
21432;SDS011;18592;49.708;10.900;2023-02-15T05:07:49;9.80;;;6.60;;
21432;SDS011;18592;49.708;10.900;2023-02-15T05:09:53;9.10;;;6.60;;
21432;SDS011;18592;49.708;10.900;2023-02-15T05:11:56;11.27;;;7.83;;
21432;SDS011;18592;49.708;10.900;2023-02-15T05:13:58;11.53;;;7.83;;
21432;SDS011;18592;49.708;10.900;2023-02-15T05:16:00;12.17;;;7.80;;
21432;SDS011;18592;49.708;10.900;2023-02-15T05:18:03;12.77;;;8.77;;
21432;SDS011;18592;49.708;10.900;2023-02-15T05:20:07;10.13;;;7.43;;
21432;SDS011;18592;49.708;10.900;2023-02-15T05:22:09;11.40;;;7.73;;
21432;SDS011;18592;49.708;10.900;2023-02-15T05:24:13;13.40;;;8.87;;
21432;SDS011;18592;49.708;10.900;2023-02-15T05:26:36;12.17;;;8.20;;
21432;SDS011;18592;49.708;10.900;2023-02-15T05:29:02;11.77;;;7.70;;
21432;SDS011;18592;49.708;10.900;2023-02-15T05:31:06;11.60;;;8.20;;
21432;SDS011;18592;49.708;10.900;2023-02-15T05:33:12;12.60;;;8.13;;
21432;SDS011;18592;49.708;10.900;2023-02-15T05:35:17;12.97;;;8.43;;
21432;SDS011;18592;49.708;10.900;2023-02-15T05:37:19;12.23;;;7.77;;
21432;SDS011;18592;49.708;10.900;2023-02-15T05:39:28;12.00;;;8.37;;
21432;SDS011;18592;49.708;10.900;2023-02-15T05:41:30;11.93;;;8.07;;
21432;SDS011;18592;49.708;10.900;2023-02-15T05:43:32;11.97;;;8.40;;
21432;SDS011;18592;49.708;10.900;2023-02-15T05:45:34;12.17;;;8.10;;
21432;SDS011;18592;49.708;10.900;2023-02-15T05:47:35;13.17;;;8.63;;
21432;SDS011;18592;49.708;10.900;2023-02-15T05:49:37;13.53;;;8.67;;
21432;SDS011;18592;49.708;10.900;2023-02-15T05:51:39;11.50;;;7.70;;
21432;SDS011;18592;49.708;10.900;2023-02-15T05:53:40;10.73;;;7.27;;
21432;SDS011;18592;49.708;10.900;2023-02-15T05:55:42;12.07;;;8.63;;
21432;SDS011;18592;49.708;10.900;2023-02-15T05:57:44;10.97;;;7.93;;
21432;SDS011;18592;49.708;10.900;2023-02-15T05:59:46;11.03;;;7.83;;
21432;SDS011;18592;49.708;10.900;2023-02-15T06:01:47;12.40;;;8.07;;
21432;SDS011;18592;49.708;10.900;2023-02-15T06:03:49;10.83;;;7.60;;
21432;SDS011;18592;49.708;10.900;2023-02-15T06:05:51;11.23;;;7.80;;
21432;SDS011;18592;49.708;10.900;2023-02-15T06:07:53;12.47;;;8.80;;
21432;SDS011;18592;49.708;10.900;2023-02-15T06:09:55;13.13;;;8.57;;
21432;SDS011;18592;49.708;10.900;2023-02-15T06:11:57;13.30;;;8.80;;
21432;SDS011;18592;49.708;10.900;2023-02-15T06:14:00;12.03;;;8.37;;
21432;SDS011;18592;49.708;10.900;2023-02-15T06:16:02;11.40;;;7.83;;
21432;SDS011;18592;49.708;10.900;2023-02-15T06:18:04;12.60;;;8.57;;
21432;SDS011;18592;49.708;10.900;2023-02-15T06:20:06;12.77;;;8.67;;
21432;SDS011;18592;49.708;10.900;2023-02-15T06:22:11;13.03;;;8.77;;
21432;SDS011;18592;49.708;10.900;2023-02-15T06:24:15;12.27;;;8.57;;
21432;SDS011;18592;49.708;10.900;2023-02-15T06:26:16;12.73;;;8.53;;
21432;SDS011;18592;49.708;10.900;2023-02-15T06:28:18;14.03;;;8.57;;
21432;SDS011;18592;49.708;10.900;2023-02-15T06:30:20;14.90;;;8.73;;
21432;SDS011;18592;49.708;10.900;2023-02-15T06:32:21;13.73;;;8.83;;
21432;SDS011;18592;49.708;10.900;2023-02-15T06:34:23;14.10;;;8.60;;
21432;SDS011;18592;49.708;10.900;2023-02-15T06:36:25;12.47;;;8.50;;
21432;SDS011;18592;49.708;10.900;2023-02-15T06:38:29;12.07;;;8.40;;
21432;SDS011;18592;49.708;10.900;2023-02-15T06:40:31;13.60;;;9.00;;
21432;SDS011;18592;49.708;10.900;2023-02-15T06:42:33;12.17;;;8.23;;
21432;SDS011;18592;49.708;10.900;2023-02-15T06:44:35;12.67;;;8.10;;
21432;SDS011;18592;49.708;10.900;2023-02-15T06:46:37;12.90;;;9.23;;
21432;SDS011;18592;49.708;10.900;2023-02-15T06:48:40;13.47;;;9.00;;
21432;SDS011;18592;49.708;10.900;2023-02-15T06:50:44;11.53;;;8.17;;
21432;SDS011;18592;49.708;10.900;2023-02-15T06:52:45;12.10;;;8.27;;
21432;SDS011;18592;49.708;10.900;2023-02-15T06:54:47;12.40;;;8.70;;
21432;SDS011;18592;49.708;10.900;2023-02-15T06:56:49;14.50;;;9.47;;
21432;SDS011;18592;49.708;10.900;2023-02-15T06:58:51;13.40;;;9.30;;
21432;SDS011;18592;49.708;10.900;2023-02-15T07:00:55;14.57;;;9.20;;
21432;SDS011;18592;49.708;10.900;2023-02-15T07:02:57;13.77;;;9.20;;
21432;SDS011;18592;49.708;10.900;2023-02-15T07:05:00;14.73;;;9.23;;
21432;SDS011;18592;49.708;10.900;2023-02-15T07:07:01;13.27;;;9.20;;
21432;SDS011;18592;49.708;10.900;2023-02-15T07:09:06;14.43;;;9.70;;
21432;SDS011;18592;49.708;10.900;2023-02-15T07:11:10;14.63;;;9.13;;
21432;SDS011;18592;49.708;10.900;2023-02-15T07:13:31;14.27;;;9.27;;
21432;SDS011;18592;49.708;10.900;2023-02-15T07:15:32;14.53;;;9.50;;
21432;SDS011;18592;49.708;10.900;2023-02-15T07:17:34;16.30;;;10.00;;
21432;SDS011;18592;49.708;10.900;2023-02-15T07:19:41;14.17;;;9.50;;
21432;SDS011;18592;49.708;10.900;2023-02-15T07:21:43;14.33;;;9.57;;
21432;SDS011;18592;49.708;10.900;2023-02-15T07:23:46;14.83;;;9.87;;
21432;SDS011;18592;49.708;10.900;2023-02-15T07:25:48;16.40;;;10.43;;
21432;SDS011;18592;49.708;10.900;2023-02-15T07:27:55;15.70;;;10.33;;
21432;SDS011;18592;49.708;10.900;2023-02-15T07:30:05;13.73;;;9.63;;
21432;SDS011;18592;49.708;10.900;2023-02-15T07:32:08;15.53;;;10.43;;
21432;SDS011;18592;49.708;10.900;2023-02-15T07:34:10;18.37;;;10.77;;
21432;SDS011;18592;49.708;10.900;2023-02-15T07:36:12;15.93;;;10.30;;
21432;SDS011;18592;49.708;10.900;2023-02-15T07:38:14;16.53;;;10.63;;
21432;SDS011;18592;49.708;10.900;2023-02-15T07:40:16;18.37;;;11.17;;
21432;SDS011;18592;49.708;10.900;2023-02-15T07:42:18;17.50;;;10.57;;
21432;SDS011;18592;49.708;10.900;2023-02-15T07:44:21;15.60;;;9.90;;
21432;SDS011;18592;49.708;10.900;2023-02-15T07:46:22;16.20;;;10.83;;
21432;SDS011;18592;49.708;10.900;2023-02-15T07:48:26;18.47;;;11.53;;
21432;SDS011;18592;49.708;10.900;2023-02-15T07:50:28;16.37;;;10.43;;
21432;SDS011;18592;49.708;10.900;2023-02-15T07:52:30;15.60;;;10.43;;
21432;SDS011;18592;49.708;10.900;2023-02-15T07:54:32;14.47;;;9.77;;
21432;SDS011;18592;49.708;10.900;2023-02-15T07:56:36;19.20;;;12.40;;
21432;SDS011;18592;49.708;10.900;2023-02-15T07:58:38;16.80;;;10.93;;
21432;SDS011;18592;49.708;10.900;2023-02-15T08:00:52;18.93;;;10.87;;
21432;SDS011;18592;49.708;10.900;2023-02-15T08:03:02;15.80;;;10.33;;
21432;SDS011;18592;49.708;10.900;2023-02-15T08:05:15;15.83;;;10.60;;
21432;SDS011;18592;49.708;10.900;2023-02-15T08:07:19;17.63;;;11.20;;
21432;SDS011;18592;49.708;10.900;2023-02-15T08:09:21;17.90;;;11.17;;
21432;SDS011;18592;49.708;10.900;2023-02-15T08:11:24;21.60;;;12.47;;
21432;SDS011;18592;49.708;10.900;2023-02-15T08:13:42;17.07;;;11.00;;
21432;SDS011;18592;49.708;10.900;2023-02-15T08:15:55;19.37;;;12.80;;
21432;SDS011;18592;49.708;10.900;2023-02-15T08:17:57;18.93;;;11.83;;
21432;SDS011;18592;49.708;10.900;2023-02-15T08:19:59;16.40;;;10.80;;
21432;SDS011;18592;49.708;10.900;2023-02-15T08:22:04;16.37;;;11.00;;
21432;SDS011;18592;49.708;10.900;2023-02-15T08:24:08;16.47;;;10.63;;
21432;SDS011;18592;49.708;10.900;2023-02-15T08:26:10;16.37;;;11.57;;
21432;SDS011;18592;49.708;10.900;2023-02-15T08:28:14;18.30;;;12.10;;
21432;SDS011;18592;49.708;10.900;2023-02-15T08:30:16;18.03;;;12.10;;
21432;SDS011;18592;49.708;10.900;2023-02-15T08:32:18;16.77;;;10.87;;
21432;SDS011;18592;49.708;10.900;2023-02-15T08:34:26;17.20;;;11.50;;
21432;SDS011;18592;49.708;10.900;2023-02-15T08:36:29;15.50;;;10.67;;
21432;SDS011;18592;49.708;10.900;2023-02-15T08:38:34;14.77;;;10.50;;
21432;SDS011;18592;49.708;10.900;2023-02-15T08:40:38;16.00;;;10.27;;
21432;SDS011;18592;49.708;10.900;2023-02-15T08:42:39;17.67;;;11.27;;
21432;SDS011;18592;49.708;10.900;2023-02-15T08:44:42;16.57;;;11.23;;
21432;SDS011;18592;49.708;10.900;2023-02-15T08:46:47;18.40;;;11.87;;
21432;SDS011;18592;49.708;10.900;2023-02-15T08:48:50;13.97;;;10.13;;
21432;SDS011;18592;49.708;10.900;2023-02-15T08:50:53;17.37;;;11.77;;
21432;SDS011;18592;49.708;10.900;2023-02-15T08:52:55;16.90;;;11.47;;
21432;SDS011;18592;49.708;10.900;2023-02-15T08:54:57;16.20;;;11.07;;
21432;SDS011;18592;49.708;10.900;2023-02-15T08:56:58;17.50;;;11.30;;
21432;SDS011;18592;49.708;10.900;2023-02-15T08:59:01;18.63;;;11.83;;
21432;SDS011;18592;49.708;10.900;2023-02-15T09:01:13;14.10;;;9.80;;
21432;SDS011;18592;49.708;10.900;2023-02-15T09:03:22;15.00;;;9.83;;
21432;SDS011;18592;49.708;10.900;2023-02-15T09:05:24;14.97;;;10.47;;
21432;SDS011;18592;49.708;10.900;2023-02-15T09:07:25;14.93;;;10.47;;
21432;SDS011;18592;49.708;10.900;2023-02-15T09:09:27;17.50;;;11.17;;
21432;SDS011;18592;49.708;10.900;2023-02-15T09:11:30;13.37;;;9.67;;
21432;SDS011;18592;49.708;10.900;2023-02-15T09:13:35;15.33;;;9.97;;
21432;SDS011;18592;49.708;10.900;2023-02-15T09:15:37;16.10;;;11.07;;
21432;SDS011;18592;49.708;10.900;2023-02-15T09:17:41;13.83;;;9.70;;
21432;SDS011;18592;49.708;10.900;2023-02-15T09:19:42;14.97;;;11.00;;
21432;SDS011;18592;49.708;10.900;2023-02-15T09:21:44;15.07;;;10.07;;
21432;SDS011;18592;49.708;10.900;2023-02-15T09:23:47;16.07;;;10.67;;
21432;SDS011;18592;49.708;10.900;2023-02-15T09:25:50;16.33;;;10.87;;
21432;SDS011;18592;49.708;10.900;2023-02-15T09:27:52;15.17;;;10.17;;
21432;SDS011;18592;49.708;10.900;2023-02-15T09:29:53;16.17;;;11.23;;
21432;SDS011;18592;49.708;10.900;2023-02-15T09:32:01;14.60;;;10.57;;
21432;SDS011;18592;49.708;10.900;2023-02-15T09:34:03;16.47;;;11.23;;
21432;SDS011;18592;49.708;10.900;2023-02-15T09:36:06;14.67;;;10.13;;
21432;SDS011;18592;49.708;10.900;2023-02-15T09:38:16;15.70;;;11.10;;
21432;SDS011;18592;49.708;10.900;2023-02-15T09:40:18;17.80;;;12.00;;
21432;SDS011;18592;49.708;10.900;2023-02-15T09:42:26;15.93;;;11.10;;
21432;SDS011;18592;49.708;10.900;2023-02-15T09:45:07;15.57;;;10.90;;
21432;SDS011;18592;49.708;10.900;2023-02-15T09:47:44;15.80;;;10.67;;
21432;SDS011;18592;49.708;10.900;2023-02-15T09:57:30;15.50;;;10.67;;
21432;SDS011;18592;49.708;10.900;2023-02-15T10:02:21;17.10;;;10.70;;
21432;SDS011;18592;49.708;10.900;2023-02-15T10:12:43;14.47;;;10.23;;
21432;SDS011;18592;49.708;10.900;2023-02-15T10:15:19;17.87;;;11.40;;
21432;SDS011;18592;49.708;10.900;2023-02-15T10:17:34;16.47;;;10.77;;
21432;SDS011;18592;49.708;10.900;2023-02-15T10:20:07;16.00;;;10.80;;
21432;SDS011;18592;49.708;10.900;2023-02-15T10:22:38;15.63;;;10.70;;
21432;SDS011;18592;49.708;10.900;2023-02-15T10:26:49;15.87;;;10.40;;
21432;SDS011;18592;49.708;10.900;2023-02-15T10:28:53;15.17;;;10.33;;
21432;SDS011;18592;49.708;10.900;2023-02-15T10:31:25;15.03;;;10.07;;
21432;SDS011;18592;49.708;10.900;2023-02-15T10:33:35;16.47;;;10.13;;
21432;SDS011;18592;49.708;10.900;2023-02-15T10:40:14;16.03;;;9.70;;
21432;SDS011;18592;49.708;10.900;2023-02-15T10:42:27;16.33;;;10.73;;
21432;SDS011;18592;49.708;10.900;2023-02-15T10:46:48;19.77;;;10.03;;
21432;SDS011;18592;49.708;10.900;2023-02-15T10:51:55;16.07;;;9.83;;
21432;SDS011;18592;49.708;10.900;2023-02-15T11:06:09;17.67;;;10.63;;
21432;SDS011;18592;49.708;10.900;2023-02-15T11:08:15;15.77;;;10.53;;
21432;SDS011;18592;49.708;10.900;2023-02-15T11:12:37;19.47;;;11.93;;
21432;SDS011;18592;49.708;10.900;2023-02-15T11:17:36;16.13;;;10.10;;
21432;SDS011;18592;49.708;10.900;2023-02-15T11:19:48;18.00;;;11.07;;
21432;SDS011;18592;49.708;10.900;2023-02-15T11:22:11;19.73;;;11.40;;
21432;SDS011;18592;49.708;10.900;2023-02-15T11:24:14;16.00;;;10.80;;
21432;SDS011;18592;49.708;10.900;2023-02-15T11:26:28;16.80;;;10.27;;
21432;SDS011;18592;49.708;10.900;2023-02-15T11:28:39;17.10;;;9.87;;
21432;SDS011;18592;49.708;10.900;2023-02-15T11:31:11;16.67;;;10.10;;
21432;SDS011;18592;49.708;10.900;2023-02-15T11:33:30;18.57;;;11.13;;
21432;SDS011;18592;49.708;10.900;2023-02-15T11:35:40;19.77;;;11.70;;
21432;SDS011;18592;49.708;10.900;2023-02-15T11:38:33;16.75;;;11.35;;
21432;SDS011;18592;49.708;10.900;2023-02-15T11:42:28;17.83;;;11.20;;
21432;SDS011;18592;49.708;10.900;2023-02-15T11:44:34;18.98;;;11.63;;
21432;SDS011;18592;49.708;10.900;2023-02-15T11:46:40;17.63;;;11.27;;
21432;SDS011;18592;49.708;10.900;2023-02-15T11:48:42;17.15;;;11.35;;
21432;SDS011;18592;49.708;10.900;2023-02-15T11:50:44;16.90;;;11.77;;
21432;SDS011;18592;49.708;10.900;2023-02-15T11:52:46;19.02;;;11.25;;
21432;SDS011;18592;49.708;10.900;2023-02-15T11:54:49;17.33;;;11.80;;
21432;SDS011;18592;49.708;10.900;2023-02-15T11:56:52;17.30;;;10.85;;
21432;SDS011;18592;49.708;10.900;2023-02-15T11:59:12;15.93;;;10.93;;
21432;SDS011;18592;49.708;10.900;2023-02-15T12:06:28;16.92;;;10.73;;
21432;SDS011;18592;49.708;10.900;2023-02-15T12:08:37;15.88;;;10.40;;
21432;SDS011;18592;49.708;10.900;2023-02-15T12:10:52;14.77;;;10.10;;
21432;SDS011;18592;49.708;10.900;2023-02-15T12:13:15;16.47;;;10.03;;
21432;SDS011;18592;49.708;10.900;2023-02-15T12:15:29;13.82;;;9.85;;
21432;SDS011;18592;49.708;10.900;2023-02-15T12:17:38;14.65;;;9.82;;
21432;SDS011;18592;49.708;10.900;2023-02-15T12:19:42;14.10;;;10.27;;
21432;SDS011;18592;49.708;10.900;2023-02-15T12:21:48;17.02;;;10.07;;
21432;SDS011;18592;49.708;10.900;2023-02-15T12:23:54;15.40;;;10.50;;
21432;SDS011;18592;49.708;10.900;2023-02-15T12:26:06;14.65;;;9.90;;
21432;SDS011;18592;49.708;10.900;2023-02-15T12:30:30;14.75;;;10.45;;
21432;SDS011;18592;49.708;10.900;2023-02-15T12:32:46;13.45;;;9.68;;
21432;SDS011;18592;49.708;10.900;2023-02-15T12:34:51;14.38;;;9.68;;
21432;SDS011;18592;49.708;10.900;2023-02-15T12:36:58;16.08;;;10.55;;
21432;SDS011;18592;49.708;10.900;2023-02-15T12:41:21;14.00;;;9.35;;
21432;SDS011;18592;49.708;10.900;2023-02-15T12:43:26;14.30;;;10.20;;
21432;SDS011;18592;49.708;10.900;2023-02-15T12:45:38;14.35;;;10.00;;
21432;SDS011;18592;49.708;10.900;2023-02-15T12:47:41;17.25;;;11.15;;
21432;SDS011;18592;49.708;10.900;2023-02-15T12:49:43;14.82;;;10.98;;
21432;SDS011;18592;49.708;10.900;2023-02-15T12:53:54;13.88;;;10.25;;
21432;SDS011;18592;49.708;10.900;2023-02-15T12:55:58;15.02;;;10.40;;
21432;SDS011;18592;49.708;10.900;2023-02-15T12:58:12;13.57;;;9.90;;
21432;SDS011;18592;49.708;10.900;2023-02-15T13:00:26;15.35;;;10.52;;
21432;SDS011;18592;49.708;10.900;2023-02-15T13:02:49;17.20;;;12.00;;
21432;SDS011;18592;49.708;10.900;2023-02-15T13:04:53;15.10;;;11.15;;
21432;SDS011;18592;49.708;10.900;2023-02-15T13:06:58;14.25;;;9.98;;
21432;SDS011;18592;49.708;10.900;2023-02-15T13:09:17;15.52;;;10.65;;
21432;SDS011;18592;49.708;10.900;2023-02-15T13:11:37;15.40;;;11.07;;
21432;SDS011;18592;49.708;10.900;2023-02-15T13:13:56;15.88;;;11.30;;
21432;SDS011;18592;49.708;10.900;2023-02-15T13:16:02;14.90;;;10.50;;
21432;SDS011;18592;49.708;10.900;2023-02-15T13:18:12;15.90;;;10.43;;
21432;SDS011;18592;49.708;10.900;2023-02-15T13:20:23;14.45;;;10.07;;
21432;SDS011;18592;49.708;10.900;2023-02-15T13:22:33;16.00;;;10.73;;
21432;SDS011;18592;49.708;10.900;2023-02-15T13:24:46;14.38;;;10.15;;
21432;SDS011;18592;49.708;10.900;2023-02-15T13:26:49;15.13;;;10.57;;
21432;SDS011;18592;49.708;10.900;2023-02-15T13:28:54;14.38;;;10.10;;
21432;SDS011;18592;49.708;10.900;2023-02-15T13:30:59;15.02;;;11.07;;
21432;SDS011;18592;49.708;10.900;2023-02-15T13:33:02;13.93;;;10.00;;
21432;SDS011;18592;49.708;10.900;2023-02-15T13:35:14;14.05;;;10.65;;
21432;SDS011;18592;49.708;10.900;2023-02-15T13:39:34;14.50;;;10.63;;